Time;durP1;ratioP1;P1;durP2;ratioP2;P2;SDS_P1;SDS_P2;PMS_P1;PMS_P2;Temp;Humidity;BMP_temperature;BMP_pressure;BME280_temperature;BME280_humidity;BME280_pressure;Samples;Min_cycle;Max_cycle;Signal;HPM_P1;HPM_P2
2022/11/10 00:00:26;;;;;;;;;;;;;;;13.36;66.64;100267.38;5073126;28;19920;-66
2022/11/10 00:02:52;;;;;;;;;;;;;;;13.00;67.32;100281.72;5074324;28;19927;-66
2022/11/10 00:05:17;;;;;;;;;;;;;;;13.23;66.77;100280.13;5078449;28;20291;-65
2022/11/10 00:07:42;;;;;;;;;;;;;;;13.02;67.60;100287.81;5077861;28;19920;-65
2022/11/10 00:10:08;;;;;;;;;;;;;;;12.94;67.75;100289.84;5074430;28;19986;-66
2022/11/10 00:12:33;;;;;;;;;;;;;;;12.88;67.99;100282.13;5075136;28;19921;-67
2022/11/10 00:17:43;;;;;;;;;;;;;;;12.93;68.21;100274.94;5076490;28;19923;-65
2022/11/10 00:20:09;;;;;;;;;;;;;;;13.02;68.04;100277.25;5074160;28;19917;-65
2022/11/10 00:22:35;;;;;;;;;;;;;;;13.02;68.02;100269.34;5074148;28;19928;-66
2022/11/10 00:25:00;;;;;;;;;;;;;;;13.11;67.44;100272.59;5072698;28;19920;-66
2022/11/10 00:27:26;;;;;;;;;;;;;;;13.12;67.44;100274.31;5073710;28;19925;-66
2022/11/10 00:29:51;;;;;;;;;;;;;;;13.11;67.30;100272.59;5074513;28;20378;-65
2022/11/10 00:32:16;;;;;;;;;;;;;;;13.12;67.47;100284.84;5074900;28;20284;-66
2022/11/10 00:34:41;;;;;;;;;;;;;;;13.13;67.58;100279.56;5074086;28;20277;-66
2022/11/10 00:37:07;;;;;;;;;;;;;;;13.09;67.98;100287.63;5074751;28;19927;-65
2022/11/10 00:39:32;;;;;;;;;;;;;;;13.23;67.29;100288.03;5073362;28;19974;-64
2022/11/10 00:41:58;;;;;;;;;;;;;;;13.21;67.48;100285.44;5073525;28;20375;-66
2022/11/10 00:44:23;;;;;;;;;;;;;;;13.24;67.49;100289.75;5072907;28;19927;-65
2022/11/10 00:46:48;;;;;;;;;;;;;;;13.23;67.40;100293.31;5073568;28;20057;-64
2022/11/10 00:49:13;;;;;;;;;;;;;;;13.16;67.66;100297.03;5073274;28;19935;-65
2022/11/10 00:51:38;;;;;;;;;;;;;;;13.24;67.46;100295.03;5073289;28;19931;-65
2022/11/10 00:54:04;;;;;;;;;;;;;;;13.35;67.11;100302.59;5073345;28;20283;-66
2022/11/10 00:56:29;;;;;;;;;;;;;;;13.30;66.85;100295.69;5072984;28;19917;-65
2022/11/10 00:58:54;;;;;;;;;;;;;;;13.37;66.87;100301.63;5072965;28;19924;-65
2022/11/10 01:01:20;;;;;;;;;;;;;;;13.43;66.64;100304.03;5053232;28;19925;-66
2022/11/10 01:03:46;;;;;;;;;;;;;;;13.44;66.76;100294.34;5069678;28;19917;-65
2022/11/10 01:06:12;;;;;;;;;;;;;;;13.46;66.52;100289.91;5064226;28;19927;-65
2022/11/10 01:08:38;;;;;;;;;;;;;;;13.39;66.76;100291.88;5074171;28;19919;-66
2022/11/10 01:11:04;;;;;;;;;;;;;;;13.22;67.42;100302.13;5073522;28;19917;-66
2022/11/10 01:13:30;;;;;;;;;;;;;;;13.34;67.16;100296.47;5073751;28;19916;-66
2022/11/10 01:15:56;;;;;;;;;;;;;;;13.38;66.86;100291.94;5074249;28;19963;-66
2022/11/10 01:18:21;;;;;;;;;;;;;;;13.39;67.16;100294.50;5072983;28;19920;-66
2022/11/10 01:20:50;;;;;;;;;;;;;;;13.40;67.16;100296.22;5071714;28;20034;-67
2022/11/10 01:23:15;;;;;;;;;;;;;;;13.46;66.88;100309.22;5073971;28;19921;-66
2022/11/10 01:25:40;;;;;;;;;;;;;;;13.34;67.81;100301.72;5072918;28;20284;-66
2022/11/10 01:28:06;;;;;;;;;;;;;;;13.36;67.22;100301.66;5072771;28;19970;-66
2022/11/10 01:30:31;;;;;;;;;;;;;;;13.44;66.70;100292.56;5071065;28;19928;-65
2022/11/10 01:32:56;;;;;;;;;;;;;;;13.36;66.97;100293.75;5073994;28;19928;-65
2022/11/10 01:35:21;;;;;;;;;;;;;;;13.46;66.80;100296.03;5073814;28;20346;-65
2022/11/10 01:37:47;;;;;;;;;;;;;;;13.41;66.99;100305.91;5072725;28;19925;-66
2022/11/10 01:40:12;;;;;;;;;;;;;;;13.41;66.70;100305.91;5072818;28;19970;-66
2022/11/10 01:42:44;;;;;;;;;;;;;;;13.40;67.05;100304.16;5072637;28;19928;-65
2022/11/10 01:45:21;;;;;;;;;;;;;;;13.41;67.50;100297.13;5073887;28;19917;-64
2022/11/10 01:47:47;;;;;;;;;;;;;;;13.48;66.58;100298.59;5072986;28;19928;-65
2022/11/10 01:50:13;;;;;;;;;;;;;;;13.38;67.13;100303.34;5073651;28;20406;-65
2022/11/10 01:52:38;;;;;;;;;;;;;;;13.48;66.67;100303.88;5074242;28;19920;-66
2022/11/10 01:55:04;;;;;;;;;;;;;;;13.50;66.63;100308.22;5072636;28;19920;-65
2022/11/10 01:57:29;;;;;;;;;;;;;;;13.50;66.88;100310.84;5076772;28;19924;-65
2022/11/10 01:59:55;;;;;;;;;;;;;;;13.43;66.88;100306.69;5075449;28;20296;-65
2022/11/10 02:02:33;;;;;;;;;;;;;;;13.28;67.31;100312.47;5077587;28;19955;-65
2022/11/10 02:05:00;;;;;;;;;;;;;;;13.22;68.15;100315.31;5077594;28;20202;-67
2022/11/10 02:07:25;;;;;;;;;;;;;;;13.35;66.91;100319.28;5075575;28;19936;-65
2022/11/10 02:09:52;;;;;;;;;;;;;;;13.39;67.09;100310.34;5077359;28;19916;-66
2022/11/10 02:12:35;;;;;;;;;;;;;;;13.27;67.87;100323.97;5078056;28;19967;-66
2022/11/10 02:15:01;;;;;;;;;;;;;;;13.21;67.59;100321.50;5079015;28;19927;-67
2022/11/10 02:17:26;;;;;;;;;;;;;;;13.36;67.85;100315.72;5076435;28;19924;-67
2022/11/10 02:19:51;;;;;;;;;;;;;;;13.06;68.00;100321.09;5075996;28;19932;-66
2022/11/10 02:22:16;;;;;;;;;;;;;;;13.24;67.63;100324.91;5078695;28;19924;-66
2022/11/10 02:24:42;;;;;;;;;;;;;;;13.02;68.09;100332.66;5079878;28;19932;-66
2022/11/10 02:27:07;;;;;;;;;;;;;;;13.15;67.77;100332.25;5077920;28;20364;-66
2022/11/10 02:29:32;;;;;;;;;;;;;;;13.20;67.48;100327.69;5075250;28;20503;-66
2022/11/10 02:31:58;;;;;;;;;;;;;;;13.20;67.43;100330.31;5077138;28;19917;-67
2022/11/10 02:34:23;;;;;;;;;;;;;;;13.25;67.32;100331.09;5074996;28;19932;-64
2022/11/10 02:36:48;;;;;;;;;;;;;;;13.11;67.81;100334.13;5076546;28;19916;-65
2022/11/10 02:39:13;;;;;;;;;;;;;;;13.03;68.19;100331.72;5075664;28;19925;-65
2022/11/10 02:41:39;;;;;;;;;;;;;;;12.96;68.92;100322.28;5076295;28;19925;-65
2022/11/10 02:44:05;;;;;;;;;;;;;;;12.95;68.45;100325.84;5076819;28;19924;-65
2022/11/10 02:46:31;;;;;;;;;;;;;;;12.97;68.39;100331.94;5073869;28;19985;-65
2022/11/10 02:48:56;;;;;;;;;;;;;;;13.00;68.21;100330.97;5074858;28;20369;-64
2022/11/10 02:51:21;;;;;;;;;;;;;;;12.87;68.76;100340.19;5108264;28;19924;-65
2022/11/10 02:53:46;;;;;;;;;;;;;;;12.93;68.41;100338.22;5074642;28;19924;-66
2022/11/10 02:56:12;;;;;;;;;;;;;;;12.85;68.65;100344.63;5075588;28;19928;-66
2022/11/10 02:58:37;;;;;;;;;;;;;;;12.91;68.88;100353.22;5072484;28;19924;-67
2022/11/10 03:01:04;;;;;;;;;;;;;;;12.82;68.59;100350.88;5074531;28;19921;-67
2022/11/10 03:03:29;;;;;;;;;;;;;;;12.87;68.49;100353.38;5074427;28;20011;-67
2022/11/10 03:05:54;;;;;;;;;;;;;;;12.91;68.50;100344.47;5074267;28;19963;-66
2022/11/10 03:08:20;;;;;;;;;;;;;;;12.94;68.41;100344.38;5073155;28;19924;-64
2022/11/10 03:10:45;;;;;;;;;;;;;;;12.90;68.60;100345.38;5075251;28;20391;-66
2022/11/10 03:13:10;;;;;;;;;;;;;;;13.05;68.00;100351.03;5074038;28;19928;-66
2022/11/10 03:15:35;;;;;;;;;;;;;;;13.04;67.79;100357.19;5074348;28;19920;-67
2022/11/10 03:18:02;;;;;;;;;;;;;;;12.99;67.91;100356.47;5074191;28;19921;-67
2022/11/10 03:20:27;;;;;;;;;;;;;;;12.96;68.03;100358.34;5073436;28;19923;-67
2022/11/10 03:22:53;;;;;;;;;;;;;;;12.96;67.88;100355.72;5073774;28;20008;-66
2022/11/10 03:25:18;;;;;;;;;;;;;;;12.92;68.11;100367.28;5074466;28;19967;-67
2022/11/10 03:27:43;;;;;;;;;;;;;;;12.79;68.55;100358.88;5075124;28;20041;-66
2022/11/10 03:30:09;;;;;;;;;;;;;;;12.86;68.32;100352.53;5072179;28;20337;-65
2022/11/10 03:32:34;;;;;;;;;;;;;;;12.65;69.49;100363.75;5074795;28;19920;-66
2022/11/10 03:34:59;;;;;;;;;;;;;;;12.61;68.98;100365.59;5075050;28;19920;-66
2022/11/10 03:37:25;;;;;;;;;;;;;;;12.72;68.61;100366.13;5073641;28;20402;-65
2022/11/10 03:39:50;;;;;;;;;;;;;;;12.71;69.32;100374.06;5074886;28;20027;-65
2022/11/10 03:42:15;;;;;;;;;;;;;;;12.73;68.66;100362.59;5074934;28;20319;-66
2022/11/10 03:44:40;;;;;;;;;;;;;;;12.78;68.49;100363.31;5074197;28;19920;-66
2022/11/10 03:47:06;;;;;;;;;;;;;;;12.70;68.68;100369.72;5074548;28;19972;-65
2022/11/10 03:49:31;;;;;;;;;;;;;;;12.55;69.11;100363.13;5073645;28;19928;-65
2022/11/10 03:51:56;;;;;;;;;;;;;;;12.78;68.56;100368.56;5009778;28;1800586;-67
2022/11/10 03:54:22;;;;;;;;;;;;;;;12.87;68.12;100366.56;5075843;28;19929;-66
2022/11/10 03:56:47;;;;;;;;;;;;;;;12.88;68.23;100377.06;5075732;28;19920;-67
2022/11/10 03:59:12;;;;;;;;;;;;;;;12.92;68.01;100380.47;5074436;28;20004;-65
2022/11/10 04:01:37;;;;;;;;;;;;;;;12.82;68.09;100374.63;5074504;28;19925;-66
2022/11/10 04:04:03;;;;;;;;;;;;;;;12.78;68.04;100380.91;5074536;28;19928;-66
2022/11/10 04:09:12;;;;;;;;;;;;;;;12.68;68.51;100380.28;5074713;28;19928;-66
2022/11/10 04:17:04;;;;;;;;;;;;;;;12.78;68.34;100391.44;5075436;28;19950;-65
2022/11/10 04:19:30;;;;;;;;;;;;;;;12.65;68.70;100392.75;5073230;28;19925;-66
2022/11/10 04:21:55;;;;;;;;;;;;;;;12.69;68.49;100386.47;5078157;28;19928;-66
2022/11/10 04:24:20;;;;;;;;;;;;;;;12.76;68.51;100387.97;5075665;28;19920;-65
2022/11/10 04:26:47;;;;;;;;;;;;;;;12.86;68.00;100381.53;5073954;28;19947;-66
2022/11/10 04:29:13;;;;;;;;;;;;;;;12.87;67.90;100388.50;5074970;28;19963;-66
2022/11/10 04:31:39;;;;;;;;;;;;;;;12.80;68.02;100397.53;5075218;28;19924;-66
2022/11/10 04:34:06;;;;;;;;;;;;;;;12.75;68.04;100388.91;5075066;28;19920;-67
2022/11/10 04:36:32;;;;;;;;;;;;;;;12.72;68.04;100400.38;5074814;28;19917;-67
2022/11/10 04:38:58;;;;;;;;;;;;;;;12.69;68.17;100400.50;5073791;28;19952;-66
2022/11/10 04:41:24;;;;;;;;;;;;;;;12.63;68.58;100399.81;5074702;28;19925;-67
2022/11/10 04:43:49;;;;;;;;;;;;;;;12.66;68.29;100407.63;5073806;28;19917;-65
2022/11/10 04:46:15;;;;;;;;;;;;;;;12.72;68.29;100402.16;5074433;28;19920;-65
2022/11/10 04:48:40;;;;;;;;;;;;;;;12.78;68.06;100402.00;5073519;28;20409;-65
2022/11/10 04:51:05;;;;;;;;;;;;;;;12.68;68.46;100403.16;5073333;28;20364;-65
2022/11/10 04:53:31;;;;;;;;;;;;;;;12.71;68.20;100405.72;5074481;28;19927;-66
2022/11/10 04:55:56;;;;;;;;;;;;;;;12.68;68.44;100408.44;5072610;28;20291;-66
2022/11/10 04:58:21;;;;;;;;;;;;;;;12.72;68.11;100407.44;5072301;28;19920;-66
2022/11/10 05:00:47;;;;;;;;;;;;;;;12.72;68.23;100407.44;5071972;28;20458;-67
2022/11/10 05:03:12;;;;;;;;;;;;;;;12.68;68.24;100416.34;5074252;28;20372;-66
2022/11/10 05:05:38;;;;;;;;;;;;;;;12.71;68.11;100416.25;5073588;28;19929;-66
2022/11/10 05:08:03;;;;;;;;;;;;;;;12.79;67.86;100417.75;5073390;28;19973;-67
2022/11/10 05:10:29;;;;;;;;;;;;;;;12.78;67.96;100417.81;5074270;28;19916;-67
2022/11/10 05:12:55;;;;;;;;;;;;;;;12.86;67.51;100422.84;5074060;28;20364;-66
2022/11/10 05:15:20;;;;;;;;;;;;;;;12.79;68.04;100424.81;5073323;28;19927;-67
2022/11/10 05:17:49;;;;;;;;;;;;;;;12.75;68.05;100424.03;5074283;28;20287;-67
2022/11/10 05:20:15;;;;;;;;;;;;;;;12.77;67.73;100424.84;5073219;28;19916;-66
2022/11/10 05:22:42;;;;;;;;;;;;;;;12.77;67.70;100434.53;5073228;28;19947;-68
2022/11/10 05:25:07;;;;;;;;;;;;;;;12.73;67.98;100439.03;5074331;28;19924;-67
2022/11/10 05:27:33;;;;;;;;;;;;;;;12.69;68.26;100439.19;5071049;28;19921;-66
2022/11/10 05:29:58;;;;;;;;;;;;;;;12.70;68.03;100441.75;5071783;28;19999;-67
2022/11/10 05:32:23;;;;;;;;;;;;;;;12.61;69.24;100435.88;5071232;28;19948;-67
2022/11/10 05:34:48;;;;;;;;;;;;;;;12.58;68.66;100435.06;5072615;28;20019;-68
2022/11/10 05:37:14;;;;;;;;;;;;;;;12.54;68.79;100440.47;5072997;28;20380;-67
2022/11/10 05:39:39;;;;;;;;;;;;;;;12.54;68.50;100451.88;5072718;28;19920;-67
2022/11/10 05:42:04;;;;;;;;;;;;;;;12.61;68.27;100456.97;5073668;28;19924;-67
2022/11/10 05:44:29;;;;;;;;;;;;;;;12.64;68.25;100464.78;5069772;28;19925;-66
2022/11/10 05:46:55;;;;;;;;;;;;;;;12.66;68.09;100461.22;5073047;28;19931;-66
2022/11/10 05:49:20;;;;;;;;;;;;;;;12.62;68.23;100469.25;5072767;28;19924;-67
2022/11/10 05:51:45;;;;;;;;;;;;;;;12.68;68.07;100484.88;5073775;28;19929;-66
2022/11/10 05:54:10;;;;;;;;;;;;;;;12.59;68.91;100478.09;5071744;28;19924;-65
2022/11/10 05:56:36;;;;;;;;;;;;;;;12.60;69.12;100476.34;5073631;28;19920;-65
2022/11/10 05:59:01;;;;;;;;;;;;;;;12.51;68.76;100478.31;5071317;28;19924;-66
2022/11/10 06:01:26;;;;;;;;;;;;;;;12.57;68.47;100487.84;5083939;28;19993;-66
2022/11/10 06:03:51;;;;;;;;;;;;;;;12.66;68.45;100492.00;5072816;28;20020;-66
2022/11/10 06:06:17;;;;;;;;;;;;;;;12.62;68.46;100493.84;5071281;28;19967;-66
2022/11/10 06:08:43;;;;;;;;;;;;;;;12.55;69.00;100500.19;5071418;28;19931;-66
2022/11/10 06:11:08;;;;;;;;;;;;;;;12.54;68.51;100511.66;5073786;28;19920;-67
2022/11/10 06:13:33;;;;;;;;;;;;;;;12.44;69.25;100505.75;5072578;28;19931;-67
2022/11/10 06:15:58;;;;;;;;;;;;;;;12.53;68.33;100510.78;5072046;28;19924;-67
2022/11/10 06:18:24;;;;;;;;;;;;;;;12.61;68.42;100525.50;5070541;28;19924;-67
2022/11/10 06:20:49;;;;;;;;;;;;;;;12.49;68.56;100526.72;5070349;28;19932;-66
2022/11/10 06:23:14;;;;;;;;;;;;;;;12.67;68.82;100523.56;5072384;28;20316;-67
2022/11/10 06:25:40;;;;;;;;;;;;;;;12.51;69.26;100525.75;5073511;28;20000;-67
2022/11/10 06:28:06;;;;;;;;;;;;;;;12.70;69.18;100534.03;5071590;28;19924;-68
2022/11/10 06:30:33;;;;;;;;;;;;;;;12.75;68.31;100533.91;5107234;28;20299;-67
2022/11/10 06:32:59;;;;;;;;;;;;;;;12.68;69.47;100535.84;5075983;28;19966;-64
2022/11/10 06:35:24;;;;;;;;;;;;;;;12.71;68.56;100548.06;5072731;28;19940;-68
2022/11/10 06:38:03;;;;;;;;;;;;;;;12.81;67.97;100545.16;5075231;28;19920;-66
2022/11/10 06:40:29;;;;;;;;;;;;;;;12.78;68.56;100553.13;5074510;28;20384;-66
2022/11/10 06:42:54;;;;;;;;;;;;;;;12.79;68.18;100551.38;5075050;28;19959;-66
2022/11/10 06:45:20;;;;;;;;;;;;;;;12.84;67.99;100560.00;5059151;28;19952;-66
2022/11/10 06:47:46;;;;;;;;;;;;;;;12.79;68.55;100559.28;5076970;28;20022;-67
2022/11/10 06:50:11;;;;;;;;;;;;;;;12.89;69.32;100570.44;5076803;28;19936;-67
2022/11/10 06:52:36;;;;;;;;;;;;;;;12.90;68.45;100580.94;5076864;28;19920;-68
2022/11/10 06:55:01;;;;;;;;;;;;;;;12.66;68.60;100586.88;5075360;28;20401;-67
2022/11/10 06:57:27;;;;;;;;;;;;;;;12.83;68.35;100585.50;5075598;28;19931;-67
2022/11/10 06:59:52;;;;;;;;;;;;;;;13.04;67.98;100589.31;5076614;28;19916;-66
2022/11/10 07:02:17;;;;;;;;;;;;;;;13.32;67.68;100591.19;5076736;28;19926;-67
2022/11/10 07:04:43;;;;;;;;;;;;;;;13.28;67.88;100602.75;5076544;28;19927;-67
2022/11/10 07:07:08;;;;;;;;;;;;;;;13.36;66.65;100594.59;5076591;28;19968;-66
2022/11/10 07:09:34;;;;;;;;;;;;;;;13.14;67.19;100611.03;5076459;28;19920;-66
2022/11/10 07:11:59;;;;;;;;;;;;;;;13.47;66.77;100616.25;5076751;28;19916;-67
2022/11/10 07:14:24;;;;;;;;;;;;;;;13.33;66.86;100610.53;5072818;28;19920;-67
2022/11/10 07:16:49;;;;;;;;;;;;;;;13.60;66.92;100608.84;5074965;28;20375;-68
2022/11/10 07:19:15;;;;;;;;;;;;;;;13.68;66.87;100612.09;5074998;28;19924;-67
2022/11/10 07:21:41;;;;;;;;;;;;;;;13.84;65.28;100608.06;5075524;28;19920;-66
2022/11/10 07:24:06;;;;;;;;;;;;;;;13.78;65.30;100611.78;5073431;28;19970;-65
2022/11/10 07:26:31;;;;;;;;;;;;;;;13.74;65.51;100618.06;5073931;28;19920;-68
2022/11/10 07:28:57;;;;;;;;;;;;;;;13.82;65.48;100625.75;5080324;28;19924;-67
2022/11/10 07:31:22;;;;;;;;;;;;;;;13.71;65.61;100630.50;5095173;28;20061;-67
2022/11/10 07:33:47;;;;;;;;;;;;;;;13.92;65.34;100627.19;5085140;28;19923;-68
2022/11/10 07:36:12;;;;;;;;;;;;;;;13.99;65.23;100639.28;5075997;28;19921;-67
2022/11/10 07:38:38;;;;;;;;;;;;;;;14.00;64.71;100635.75;5075923;28;19920;-67
2022/11/10 07:41:03;;;;;;;;;;;;;;;14.10;64.72;100635.47;5075690;28;20356;-66
2022/11/10 07:43:28;;;;;;;;;;;;;;;14.38;64.36;100646.84;5075549;28;19967;-66
2022/11/10 07:45:54;;;;;;;;;;;;;;;14.40;64.63;100660.91;5079111;28;19924;-68
2022/11/10 07:48:19;;;;;;;;;;;;;;;14.68;63.09;100654.69;5075727;28;20440;-67
2022/11/10 07:50:44;;;;;;;;;;;;;;;14.17;64.77;100651.06;5057678;28;19924;-68
2022/11/10 07:53:18;;;;;;;;;;;;;;;14.18;64.62;100654.56;5074511;28;19922;-66
2022/11/10 07:55:44;;;;;;;;;;;;;;;13.97;65.00;100666.69;5074640;28;20376;-68
2022/11/10 07:58:10;;;;;;;;;;;;;;;14.15;64.79;100667.88;5094120;28;20006;-66
2022/11/10 08:00:35;;;;;;;;;;;;;;;14.09;65.06;100670.72;5095483;28;20271;-66
2022/11/10 08:03:02;;;;;;;;;;;;;;;14.20;65.57;100676.50;5094625;28;19920;-67
2022/11/10 08:05:27;;;;;;;;;;;;;;;14.16;64.48;100674.88;5095584;28;19970;-66
2022/11/10 08:07:53;;;;;;;;;;;;;;;14.27;64.26;100681.56;5094136;28;19924;-67
2022/11/10 08:10:18;;;;;;;;;;;;;;;14.37;63.97;100671.56;5075042;28;19971;-67
2022/11/10 08:12:43;;;;;;;;;;;;;;;14.28;64.18;100671.84;5075288;28;19916;-67
2022/11/10 08:15:09;;;;;;;;;;;;;;;14.16;64.71;100686.34;5074948;28;19959;-67
2022/11/10 08:17:34;;;;;;;;;;;;;;;14.38;64.21;100686.50;5074795;28;20380;-66
2022/11/10 08:19:59;;;;;;;;;;;;;;;14.34;63.70;100698.09;5075000;28;20399;-67
2022/11/10 08:22:24;;;;;;;;;;;;;;;14.63;63.55;100705.09;5074942;28;20007;-67
2022/11/10 08:24:50;;;;;;;;;;;;;;;14.76;62.78;100713.47;5074867;28;19920;-68
2022/11/10 08:27:15;;;;;;;;;;;;;;;14.72;64.00;100712.75;5074833;28;19920;-68
2022/11/10 08:29:40;;;;;;;;;;;;;;;15.08;63.98;100711.50;5073575;28;20291;-68
2022/11/10 08:32:05;;;;;;;;;;;;;;;15.67;62.02;100713.81;5074744;28;19978;-67
2022/11/10 08:34:31;;;;;;;;;;;;;;;15.51;60.46;100709.06;5075596;28;20356;-67
2022/11/10 08:36:56;;;;;;;;;;;;;;;15.76;60.26;100710.84;5076122;28;19925;-67
2022/11/10 08:39:21;;;;;;;;;;;;;;;15.63;62.18;100717.47;5074676;28;19924;-68
2022/11/10 08:41:46;;;;;;;;;;;;;;;15.50;62.37;100719.72;5074463;28;19971;-68
2022/11/10 08:44:12;;;;;;;;;;;;;;;15.42;60.76;100722.63;5074946;28;20288;-66
2022/11/10 08:46:37;;;;;;;;;;;;;;;15.09;62.32;100737.09;5075439;28;19927;-67
2022/11/10 08:49:02;;;;;;;;;;;;;;;15.23;62.02;100734.81;5074314;28;19932;-67
2022/11/10 08:51:28;;;;;;;;;;;;;;;15.35;61.57;100737.00;5074602;28;20257;-67
2022/11/10 08:53:53;;;;;;;;;;;;;;;14.93;62.44;100734.09;5074206;28;19930;-68
2022/11/10 08:56:18;;;;;;;;;;;;;;;14.85;62.28;100737.00;5074543;28;20041;-70
2022/11/10 08:58:43;;;;;;;;;;;;;;;15.06;63.17;100739.81;5074433;28;19924;-68
2022/11/10 09:01:09;;;;;;;;;;;;;;;14.93;62.17;100745.53;5074212;28;20367;-68
2022/11/10 09:03:34;;;;;;;;;;;;;;;15.00;61.90;100752.38;5074271;28;19952;-67
2022/11/10 09:05:59;;;;;;;;;;;;;;;15.08;63.54;100756.50;5072870;28;19921;-68
2022/11/10 09:08:25;;;;;;;;;;;;;;;15.06;62.41;100759.22;5074200;28;20379;-68
2022/11/10 09:10:50;;;;;;;;;;;;;;;15.23;61.33;100759.47;5073449;28;19920;-67
2022/11/10 09:13:16;;;;;;;;;;;;;;;15.22;61.59;100768.34;5073078;28;20292;-68
2022/11/10 09:15:42;;;;;;;;;;;;;;;15.16;61.12;100778.28;5074107;28;20008;-67
2022/11/10 09:18:07;;;;;;;;;;;;;;;15.42;62.03;100772.94;5072874;28;20291;-67
2022/11/10 09:20:34;;;;;;;;;;;;;;;15.74;61.27;100778.91;5073766;28;19927;-67
2022/11/10 09:23:07;;;;;;;;;;;;;;;15.50;60.63;100778.84;5072596;28;19916;-68
2022/11/10 09:25:32;;;;;;;;;;;;;;;15.72;61.69;100781.63;5074050;28;19916;-67
2022/11/10 09:27:57;;;;;;;;;;;;;;;15.44;60.35;100788.78;5073738;28;19920;-68
2022/11/10 09:30:24;;;;;;;;;;;;;;;15.49;61.00;100800.94;5073841;28;19920;-67
2022/11/10 09:32:53;;;;;;;;;;;;;;;15.25;61.10;100797.38;5073909;28;20372;-68
2022/11/10 09:35:18;;;;;;;;;;;;;;;15.36;60.53;100802.31;5073841;28;20058;-69
2022/11/10 09:37:43;;;;;;;;;;;;;;;15.20;61.18;100790.50;5073563;28;20015;-68
2022/11/10 09:40:14;;;;;;;;;;;;;;;15.44;60.82;100794.06;5073807;28;19917;-69
2022/11/10 09:42:40;;;;;;;;;;;;;;;15.30;60.53;100791.91;5073952;28;19916;-67
2022/11/10 09:45:10;;;;;;;;;;;;;;;15.70;59.43;100801.13;5073716;28;20074;-68
2022/11/10 09:47:41;;;;;;;;;;;;;;;15.66;60.07;100800.38;5074031;28;19923;-66
2022/11/10 09:50:12;;;;;;;;;;;;;;;15.17;60.79;100807.34;5073155;28;19928;-68
2022/11/10 09:52:38;;;;;;;;;;;;;;;15.22;61.04;100799.25;5073791;28;19916;-68
2022/11/10 09:55:33;;;;;;;;;;;;;;;15.34;60.60;100798.84;5073922;28;19921;-68
2022/11/10 09:57:58;;;;;;;;;;;;;;;15.44;60.22;100794.06;5068679;28;19920;-68
2022/11/10 10:00:24;;;;;;;;;;;;;;;16.02;60.12;100797.28;5072223;28;19920;-67
2022/11/10 10:02:58;;;;;;;;;;;;;;;15.94;58.21;100808.19;5073600;28;19917;-69
2022/11/10 10:05:45;;;;;;;;;;;;;;;15.49;59.47;100819.50;5073716;28;19916;-68
2022/11/10 10:08:35;;;;;;;;;;;;;;;15.90;58.53;100819.81;5073666;28;19916;-67
2022/11/10 10:11:10;;;;;;;;;;;;;;;15.81;59.99;100819.31;5073482;28;19923;-68
2022/11/10 10:13:58;;;;;;;;;;;;;;;16.07;57.50;100836.88;5071746;28;19916;-67
2022/11/10 10:16:36;;;;;;;;;;;;;;;15.74;58.36;100846.00;5073532;28;19977;-68
2022/11/10 10:19:27;;;;;;;;;;;;;;;16.06;58.18;100829.84;5076798;28;19917;-68
2022/11/10 10:21:52;;;;;;;;;;;;;;;16.03;57.63;100830.81;5075810;28;19923;-68
2022/11/10 10:24:20;;;;;;;;;;;;;;;16.08;57.50;100838.59;5077159;28;19916;-68
2022/11/10 10:26:51;;;;;;;;;;;;;;;16.19;57.11;100845.22;5077277;28;19924;-69
2022/11/10 10:29:21;;;;;;;;;;;;;;;16.02;57.44;100835.25;5077081;28;20023;-69
2022/11/10 10:31:48;;;;;;;;;;;;;;;16.08;57.18;100843.91;5076722;28;19963;-68
2022/11/10 10:34:15;;;;;;;;;;;;;;;16.01;57.34;100853.88;5077163;28;19923;-69
2022/11/10 10:36:40;;;;;;;;;;;;;;;16.26;57.28;100853.81;5077043;28;20003;-68
2022/11/10 10:39:09;;;;;;;;;;;;;;;15.97;57.40;100845.19;5076893;28;20016;-69
2022/11/10 10:41:35;;;;;;;;;;;;;;;15.87;57.96;100859.66;5076028;28;19924;-69
2022/11/10 10:44:01;;;;;;;;;;;;;;;15.97;57.89;100861.06;5077225;28;20011;-69
2022/11/10 10:46:28;;;;;;;;;;;;;;;15.85;58.25;100869.47;5077360;28;19974;-70
2022/11/10 10:49:13;;;;;;;;;;;;;;;15.35;60.64;100882.63;5077342;28;19978;-68
2022/11/10 10:51:39;;;;;;;;;;;;;;;14.97;61.96;100874.19;5076927;28;19920;-69
2022/11/10 10:54:21;;;;;;;;;;;;;;;15.22;61.22;100874.22;5078045;28;19928;-69
2022/11/10 10:56:46;;;;;;;;;;;;;;;15.43;60.72;100869.13;5075852;28;20447;-69
2022/11/10 10:59:18;;;;;;;;;;;;;;;15.39;60.65;100871.00;5076786;28;20019;-69
2022/11/10 11:01:43;;;;;;;;;;;;;;;15.30;60.65;100887.22;5077271;28;20011;-69
2022/11/10 11:04:27;;;;;;;;;;;;;;;15.35;60.16;100879.13;5076699;28;19964;-68
2022/11/10 11:06:57;;;;;;;;;;;;;;;15.56;59.66;100882.81;5075136;28;20031;-69
2022/11/10 11:09:42;;;;;;;;;;;;;;;15.33;60.93;100884.47;5076302;28;19924;-69
2022/11/10 11:12:16;;;;;;;;;;;;;;;15.33;60.73;100888.91;5076898;28;20017;-69
2022/11/10 11:14:42;;;;;;;;;;;;;;;15.86;60.03;100887.09;5076472;28;19916;-69
2022/11/10 11:17:17;;;;;;;;;;;;;;;15.98;58.59;100891.94;5076681;28;20450;-69
2022/11/10 11:19:43;;;;;;;;;;;;;;;16.08;58.51;100896.91;5074940;28;19920;-70
2022/11/10 11:22:23;;;;;;;;;;;;;;;16.26;58.59;100896.25;5076459;28;19920;-68
2022/11/10 11:24:51;;;;;;;;;;;;;;;16.47;58.25;100903.41;5076348;28;19917;-68
2022/11/10 11:27:16;;;;;;;;;;;;;;;16.16;58.05;100900.19;5076102;28;19916;-68
2022/11/10 11:29:53;;;;;;;;;;;;;;;16.32;57.86;100909.28;5075892;28;20019;-69
2022/11/10 11:32:21;;;;;;;;;;;;;;;16.01;58.48;100918.34;5076116;28;19916;-68
2022/11/10 11:34:49;;;;;;;;;;;;;;;15.98;58.57;100905.19;5076181;28;19916;-70
2022/11/10 11:37:26;;;;;;;;;;;;;;;15.88;59.05;100901.16;5076086;28;19984;-66
2022/11/10 11:40:11;;;;;;;;;;;;;;;16.16;58.84;100895.75;5074369;28;19917;-70
2022/11/10 11:42:50;;;;;;;;;;;;;;;16.47;57.63;100900.75;5064235;28;20368;-69
2022/11/10 11:45:22;;;;;;;;;;;;;;;16.28;57.40;100902.38;5076049;28;19970;-66
2022/11/10 11:48:11;;;;;;;;;;;;;;;16.56;57.88;100898.69;5075646;28;19939;-68
2022/11/10 11:50:49;;;;;;;;;;;;;;;16.71;57.11;100909.56;5065149;28;19951;-69
2022/11/10 11:53:17;;;;;;;;;;;;;;;16.65;57.26;100915.09;5075779;28;19916;-69
2022/11/10 11:55:51;;;;;;;;;;;;;;;16.35;57.28;100914.47;5075526;28;19955;-69
2022/11/10 11:58:19;;;;;;;;;;;;;;;16.87;56.84;100914.31;5075316;28;19923;-70
2022/11/10 12:00:51;;;;;;;;;;;;;;;16.80;56.13;100926.97;5075628;28;20003;-70
2022/11/10 12:03:36;;;;;;;;;;;;;;;16.63;55.97;100921.38;5075300;28;19961;-68
2022/11/10 12:06:16;;;;;;;;;;;;;;;16.74;55.89;100917.44;5075565;28;19916;-70
2022/11/10 12:08:53;;;;;;;;;;;;;;;16.78;55.35;100923.50;5075252;28;20391;-69
2022/11/10 12:11:34;;;;;;;;;;;;;;;17.07;54.94;100927.66;5075160;28;19923;-68
2022/11/10 12:14:05;;;;;;;;;;;;;;;17.17;54.58;100928.16;5075134;28;20341;-69
2022/11/10 12:16:32;;;;;;;;;;;;;;;17.21;54.18;100922.66;5075035;28;19920;-69
2022/11/10 12:19:14;;;;;;;;;;;;;;;17.15;54.13;100930.00;5074860;28;20353;-70
2022/11/10 12:21:47;;;;;;;;;;;;;;;17.05;54.58;100933.97;5074983;28;19921;-69
2022/11/10 12:24:22;;;;;;;;;;;;;;;16.50;55.10;100950.16;5074837;28;20364;-69
2022/11/10 12:27:07;;;;;;;;;;;;;;;16.63;55.21;100948.78;5074793;28;19928;-70
2022/11/10 12:29:32;;;;;;;;;;;;;;;16.47;55.38;100952.94;5066047;28;19927;-69
2022/11/10 12:32:02;;;;;;;;;;;;;;;16.09;56.28;100956.97;5074942;28;19916;-69
2022/11/10 12:34:56;;;;;;;;;;;;;;;15.87;56.46;100968.31;5074719;28;19965;-68
2022/11/10 12:37:27;;;;;;;;;;;;;;;15.74;57.39;100970.50;5069811;28;19916;-70
2022/11/10 12:39:57;;;;;;;;;;;;;;;15.74;57.62;100972.31;5072986;28;19969;-69
2022/11/10 12:42:25;;;;;;;;;;;;;;;15.47;58.14;100977.53;5073431;28;19939;-70
2022/11/10 12:44:58;;;;;;;;;;;;;;;15.01;58.80;100970.22;5074330;28;19916;-70
2022/11/10 12:47:26;;;;;;;;;;;;;;;15.01;58.93;100991.38;5074329;28;19923;-68